sensor_id;sensor_type;location;lat;lon;timestamp;temperature;humidity
21115;DHT22;10715;48.546;9.896;2023-02-11T00:01:30;-5.70;99.90
21115;DHT22;10715;48.546;9.896;2023-02-11T00:03:57;-5.70;99.90
21115;DHT22;10715;48.546;9.896;2023-02-11T00:06:24;-5.70;99.90
21115;DHT22;10715;48.546;9.896;2023-02-11T00:08:50;-5.80;99.90
21115;DHT22;10715;48.546;9.896;2023-02-11T00:11:17;-5.80;99.90
21115;DHT22;10715;48.546;9.896;2023-02-11T00:13:44;-5.90;99.90
21115;DHT22;10715;48.546;9.896;2023-02-11T00:16:15;-5.90;99.90
21115;DHT22;10715;48.546;9.896;2023-02-11T00:18:42;-5.90;99.90
21115;DHT22;10715;48.546;9.896;2023-02-11T00:21:13;-6.00;99.90
21115;DHT22;10715;48.546;9.896;2023-02-11T00:23:40;-6.00;99.90
21115;DHT22;10715;48.546;9.896;2023-02-11T00:26:17;-6.10;99.90
21115;DHT22;10715;48.546;9.896;2023-02-11T00:28:43;-6.10;99.90
21115;DHT22;10715;48.546;9.896;2023-02-11T00:31:09;-6.00;99.90
21115;DHT22;10715;48.546;9.896;2023-02-11T00:33:35;-6.00;99.90
21115;DHT22;10715;48.546;9.896;2023-02-11T00:36:06;-6.00;99.90
21115;DHT22;10715;48.546;9.896;2023-02-11T00:38:31;-6.10;99.90
21115;DHT22;10715;48.546;9.896;2023-02-11T00:40:57;-6.10;99.90
21115;DHT22;10715;48.546;9.896;2023-02-11T00:43:24;-6.20;99.90
21115;DHT22;10715;48.546;9.896;2023-02-11T00:45:49;-6.30;99.90
21115;DHT22;10715;48.546;9.896;2023-02-11T00:48:15;-6.30;99.90
21115;DHT22;10715;48.546;9.896;2023-02-11T00:50:41;-6.40;99.90
21115;DHT22;10715;48.546;9.896;2023-02-11T00:53:06;-6.40;99.90
21115;DHT22;10715;48.546;9.896;2023-02-11T00:55:32;-6.50;99.90
21115;DHT22;10715;48.546;9.896;2023-02-11T00:57:58;-6.50;99.90
21115;DHT22;10715;48.546;9.896;2023-02-11T01:00:25;-6.50;99.90
21115;DHT22;10715;48.546;9.896;2023-02-11T01:02:51;-6.60;99.90
21115;DHT22;10715;48.546;9.896;2023-02-11T01:05:17;-6.50;99.90
21115;DHT22;10715;48.546;9.896;2023-02-11T01:07:43;-6.50;99.90
21115;DHT22;10715;48.546;9.896;2023-02-11T01:10:09;-6.40;99.90
21115;DHT22;10715;48.546;9.896;2023-02-11T01:12:35;-6.40;99.90
21115;DHT22;10715;48.546;9.896;2023-02-11T01:15:02;-6.40;99.90
21115;DHT22;10715;48.546;9.896;2023-02-11T01:17:28;-6.40;99.90
21115;DHT22;10715;48.546;9.896;2023-02-11T01:19:53;-6.50;99.90
21115;DHT22;10715;48.546;9.896;2023-02-11T01:22:19;-6.50;99.90
21115;DHT22;10715;48.546;9.896;2023-02-11T01:24:45;-6.50;99.90
21115;DHT22;10715;48.546;9.896;2023-02-11T01:27:12;-6.50;99.90
21115;DHT22;10715;48.546;9.896;2023-02-11T01:29:38;-6.50;99.90
21115;DHT22;10715;48.546;9.896;2023-02-11T01:32:03;-6.50;99.90
21115;DHT22;10715;48.546;9.896;2023-02-11T01:34:29;-6.50;99.90
21115;DHT22;10715;48.546;9.896;2023-02-11T01:36:58;-6.60;99.90
21115;DHT22;10715;48.546;9.896;2023-02-11T01:39:25;-6.60;99.90
21115;DHT22;10715;48.546;9.896;2023-02-11T01:41:52;-6.60;99.90
21115;DHT22;10715;48.546;9.896;2023-02-11T01:44:27;-6.60;99.90
21115;DHT22;10715;48.546;9.896;2023-02-11T01:46:53;-6.60;99.90
21115;DHT22;10715;48.546;9.896;2023-02-11T01:49:32;-6.60;99.90
21115;DHT22;10715;48.546;9.896;2023-02-11T01:52:01;-6.50;99.90
21115;DHT22;10715;48.546;9.896;2023-02-11T01:54:32;-6.50;99.90
21115;DHT22;10715;48.546;9.896;2023-02-11T01:57:21;-6.50;99.90
21115;DHT22;10715;48.546;9.896;2023-02-11T02:00:09;-6.60;99.90
21115;DHT22;10715;48.546;9.896;2023-02-11T02:02:55;-6.60;99.90
21115;DHT22;10715;48.546;9.896;2023-02-11T02:10:26;-6.70;99.90
21115;DHT22;10715;48.546;9.896;2023-02-11T02:12:52;-6.70;99.90
21115;DHT22;10715;48.546;9.896;2023-02-11T02:15:28;-6.80;99.90
21115;DHT22;10715;48.546;9.896;2023-02-11T02:18:01;-6.80;99.90
21115;DHT22;10715;48.546;9.896;2023-02-11T02:32:38;-6.80;99.90
21115;DHT22;10715;48.546;9.896;2023-02-11T02:40:28;-6.70;99.90
21115;DHT22;10715;48.546;9.896;2023-02-11T02:42:56;-6.70;99.90
21115;DHT22;10715;48.546;9.896;2023-02-11T02:45:23;-6.70;99.90
21115;DHT22;10715;48.546;9.896;2023-02-11T02:47:49;-6.70;99.90
21115;DHT22;10715;48.546;9.896;2023-02-11T02:50:16;-6.70;99.90
21115;DHT22;10715;48.546;9.896;2023-02-11T03:04:24;-6.80;99.90
21115;DHT22;10715;48.546;9.896;2023-02-11T03:07:04;-6.80;99.90
21115;DHT22;10715;48.546;9.896;2023-02-11T03:09:31;-6.80;99.90
21115;DHT22;10715;48.546;9.896;2023-02-11T03:11:59;-6.70;99.90
21115;DHT22;10715;48.546;9.896;2023-02-11T03:14:27;-6.70;99.90
21115;DHT22;10715;48.546;9.896;2023-02-11T03:16:56;-6.70;99.90
21115;DHT22;10715;48.546;9.896;2023-02-11T03:19:28;-6.80;99.90
21115;DHT22;10715;48.546;9.896;2023-02-11T03:21:55;-6.80;99.90
21115;DHT22;10715;48.546;9.896;2023-02-11T03:24:34;-6.80;99.90
21115;DHT22;10715;48.546;9.896;2023-02-11T03:27:28;-6.80;99.90
21115;DHT22;10715;48.546;9.896;2023-02-11T03:30:04;-6.70;99.90
21115;DHT22;10715;48.546;9.896;2023-02-11T03:32:36;-6.70;99.90
21115;DHT22;10715;48.546;9.896;2023-02-11T03:35:28;-6.70;99.90
21115;DHT22;10715;48.546;9.896;2023-02-11T03:38:06;-6.60;99.90
21115;DHT22;10715;48.546;9.896;2023-02-11T03:40:36;-6.60;99.90
21115;DHT22;10715;48.546;9.896;2023-02-11T03:43:10;-6.60;99.90
21115;DHT22;10715;48.546;9.896;2023-02-11T03:45:37;-6.50;99.90
21115;DHT22;10715;48.546;9.896;2023-02-11T03:48:18;-6.50;99.90
21115;DHT22;10715;48.546;9.896;2023-02-11T03:50:45;-6.50;99.90
21115;DHT22;10715;48.546;9.896;2023-02-11T03:53:13;-6.50;99.90
21115;DHT22;10715;48.546;9.896;2023-02-11T03:55:39;-6.50;99.90
21115;DHT22;10715;48.546;9.896;2023-02-11T03:58:08;-6.50;99.90
21115;DHT22;10715;48.546;9.896;2023-02-11T04:00:36;-6.50;99.90
21115;DHT22;10715;48.546;9.896;2023-02-11T04:03:04;-6.60;99.90
21115;DHT22;10715;48.546;9.896;2023-02-11T04:05:30;-6.60;99.90
21115;DHT22;10715;48.546;9.896;2023-02-11T04:07:56;-6.60;99.90
21115;DHT22;10715;48.546;9.896;2023-02-11T04:10:22;-6.60;99.90
21115;DHT22;10715;48.546;9.896;2023-02-11T04:12:47;-6.50;99.90
21115;DHT22;10715;48.546;9.896;2023-02-11T04:15:13;-6.50;99.90
21115;DHT22;10715;48.546;9.896;2023-02-11T04:17:39;-6.40;99.90
21115;DHT22;10715;48.546;9.896;2023-02-11T04:20:05;-6.40;99.90
21115;DHT22;10715;48.546;9.896;2023-02-11T04:22:31;-6.40;99.90
21115;DHT22;10715;48.546;9.896;2023-02-11T04:24:56;-6.40;99.90
21115;DHT22;10715;48.546;9.896;2023-02-11T04:27:22;-6.40;99.90
21115;DHT22;10715;48.546;9.896;2023-02-11T04:29:48;-6.40;99.90
21115;DHT22;10715;48.546;9.896;2023-02-11T04:32:14;-6.40;99.90
21115;DHT22;10715;48.546;9.896;2023-02-11T04:34:39;-6.40;99.90
21115;DHT22;10715;48.546;9.896;2023-02-11T04:37:05;-6.40;99.90
21115;DHT22;10715;48.546;9.896;2023-02-11T04:39:31;-6.40;99.90
21115;DHT22;10715;48.546;9.896;2023-02-11T04:41:57;-6.40;99.90
21115;DHT22;10715;48.546;9.896;2023-02-11T04:44:22;-6.40;99.90
21115;DHT22;10715;48.546;9.896;2023-02-11T04:46:48;-6.30;99.90
21115;DHT22;10715;48.546;9.896;2023-02-11T04:49:14;-6.30;99.90
21115;DHT22;10715;48.546;9.896;2023-02-11T04:51:40;-6.30;99.90
21115;DHT22;10715;48.546;9.896;2023-02-11T04:54:06;-6.20;99.90
21115;DHT22;10715;48.546;9.896;2023-02-11T04:56:32;-6.20;99.90
21115;DHT22;10715;48.546;9.896;2023-02-11T04:58:59;-6.20;99.90
21115;DHT22;10715;48.546;9.896;2023-02-11T05:01:24;-6.20;99.90
21115;DHT22;10715;48.546;9.896;2023-02-11T05:03:50;-6.20;99.90
21115;DHT22;10715;48.546;9.896;2023-02-11T05:06:16;-6.10;99.90
21115;DHT22;10715;48.546;9.896;2023-02-11T05:08:42;-6.10;99.90
21115;DHT22;10715;48.546;9.896;2023-02-11T05:11:14;-6.10;99.90
21115;DHT22;10715;48.546;9.896;2023-02-11T05:13:40;-6.10;99.90
21115;DHT22;10715;48.546;9.896;2023-02-11T05:16:06;-6.00;99.90
21115;DHT22;10715;48.546;9.896;2023-02-11T05:18:32;-6.00;99.90
21115;DHT22;10715;48.546;9.896;2023-02-11T05:20:57;-5.90;99.90
21115;DHT22;10715;48.546;9.896;2023-02-11T05:23:23;-5.90;99.90
21115;DHT22;10715;48.546;9.896;2023-02-11T05:25:49;-5.90;99.90
21115;DHT22;10715;48.546;9.896;2023-02-11T05:28:14;-5.80;99.90
21115;DHT22;10715;48.546;9.896;2023-02-11T05:30:40;-5.80;99.90
21115;DHT22;10715;48.546;9.896;2023-02-11T05:33:06;-5.70;99.90
21115;DHT22;10715;48.546;9.896;2023-02-11T05:35:31;-5.70;99.90
21115;DHT22;10715;48.546;9.896;2023-02-11T05:37:57;-5.60;99.90
21115;DHT22;10715;48.546;9.896;2023-02-11T05:40:23;-5.50;99.90
21115;DHT22;10715;48.546;9.896;2023-02-11T05:42:48;-5.50;99.90
21115;DHT22;10715;48.546;9.896;2023-02-11T05:45:14;-5.40;99.90
21115;DHT22;10715;48.546;9.896;2023-02-11T05:47:40;-5.40;99.90
21115;DHT22;10715;48.546;9.896;2023-02-11T05:50:06;-5.40;99.90
21115;DHT22;10715;48.546;9.896;2023-02-11T05:52:32;-5.40;99.90
21115;DHT22;10715;48.546;9.896;2023-02-11T05:54:57;-5.40;99.90
21115;DHT22;10715;48.546;9.896;2023-02-11T05:57:23;-5.40;99.90
21115;DHT22;10715;48.546;9.896;2023-02-11T05:59:49;-5.30;99.90
21115;DHT22;10715;48.546;9.896;2023-02-11T06:02:14;-5.30;99.90
21115;DHT22;10715;48.546;9.896;2023-02-11T06:04:40;-5.30;99.90
21115;DHT22;10715;48.546;9.896;2023-02-11T06:07:06;-5.30;99.90
21115;DHT22;10715;48.546;9.896;2023-02-11T06:09:31;-5.20;99.90
21115;DHT22;10715;48.546;9.896;2023-02-11T06:11:57;-5.20;99.90
21115;DHT22;10715;48.546;9.896;2023-02-11T06:14:23;-5.20;99.90
21115;DHT22;10715;48.546;9.896;2023-02-11T06:16:48;-5.20;99.90
21115;DHT22;10715;48.546;9.896;2023-02-11T06:19:14;-5.20;99.90
21115;DHT22;10715;48.546;9.896;2023-02-11T06:21:40;-5.20;99.90
21115;DHT22;10715;48.546;9.896;2023-02-11T06:24:06;-5.20;99.90
21115;DHT22;10715;48.546;9.896;2023-02-11T06:26:32;-5.20;99.90
21115;DHT22;10715;48.546;9.896;2023-02-11T06:29:01;-5.10;99.90
21115;DHT22;10715;48.546;9.896;2023-02-11T06:31:27;-5.10;99.90
21115;DHT22;10715;48.546;9.896;2023-02-11T06:33:53;-5.00;99.90
21115;DHT22;10715;48.546;9.896;2023-02-11T06:36:22;-5.00;99.90
21115;DHT22;10715;48.546;9.896;2023-02-11T06:38:48;-5.00;99.90
21115;DHT22;10715;48.546;9.896;2023-02-11T06:41:16;-4.90;99.90
21115;DHT22;10715;48.546;9.896;2023-02-11T06:43:43;-4.90;99.90
21115;DHT22;10715;48.546;9.896;2023-02-11T06:46:09;-4.90;99.90
21115;DHT22;10715;48.546;9.896;2023-02-11T06:48:34;-4.90;99.90
21115;DHT22;10715;48.546;9.896;2023-02-11T06:51:05;-4.90;99.90
21115;DHT22;10715;48.546;9.896;2023-02-11T06:53:35;-4.80;99.90
21115;DHT22;10715;48.546;9.896;2023-02-11T06:56:02;-4.80;99.90
21115;DHT22;10715;48.546;9.896;2023-02-11T06:58:28;-4.70;99.90
21115;DHT22;10715;48.546;9.896;2023-02-11T07:00:54;-4.70;99.90
21115;DHT22;10715;48.546;9.896;2023-02-11T07:03:20;-4.70;99.90
21115;DHT22;10715;48.546;9.896;2023-02-11T07:05:45;-4.70;99.90
21115;DHT22;10715;48.546;9.896;2023-02-11T07:08:11;-4.70;99.90
21115;DHT22;10715;48.546;9.896;2023-02-11T07:10:37;-4.60;99.90
21115;DHT22;10715;48.546;9.896;2023-02-11T07:13:02;-4.60;99.90
21115;DHT22;10715;48.546;9.896;2023-02-11T07:15:28;-4.50;99.90
21115;DHT22;10715;48.546;9.896;2023-02-11T07:17:54;-4.50;99.90
21115;DHT22;10715;48.546;9.896;2023-02-11T07:20:19;-4.50;99.90
21115;DHT22;10715;48.546;9.896;2023-02-11T07:22:45;-4.40;99.90
21115;DHT22;10715;48.546;9.896;2023-02-11T07:25:11;-4.40;99.90
21115;DHT22;10715;48.546;9.896;2023-02-11T07:27:36;-4.40;99.90
21115;DHT22;10715;48.546;9.896;2023-02-11T07:30:03;-4.30;99.90
21115;DHT22;10715;48.546;9.896;2023-02-11T07:32:29;-4.30;99.90
21115;DHT22;10715;48.546;9.896;2023-02-11T07:34:55;-4.20;99.90
21115;DHT22;10715;48.546;9.896;2023-02-11T07:37:21;-4.20;99.90
21115;DHT22;10715;48.546;9.896;2023-02-11T07:39:46;-4.20;99.90
21115;DHT22;10715;48.546;9.896;2023-02-11T07:42:12;-4.10;99.90
21115;DHT22;10715;48.546;9.896;2023-02-11T07:44:37;-4.10;99.90
21115;DHT22;10715;48.546;9.896;2023-02-11T07:47:03;-4.10;99.90
21115;DHT22;10715;48.546;9.896;2023-02-11T07:49:29;-4.00;99.90
21115;DHT22;10715;48.546;9.896;2023-02-11T07:51:55;-4.00;99.90
21115;DHT22;10715;48.546;9.896;2023-02-11T07:54:21;-3.90;99.90
21115;DHT22;10715;48.546;9.896;2023-02-11T07:56:47;-3.90;99.90
21115;DHT22;10715;48.546;9.896;2023-02-11T07:59:12;-3.80;99.90
21115;DHT22;10715;48.546;9.896;2023-02-11T08:01:38;-3.80;99.90
21115;DHT22;10715;48.546;9.896;2023-02-11T08:04:04;-3.80;99.90
21115;DHT22;10715;48.546;9.896;2023-02-11T08:06:32;-3.70;99.90
21115;DHT22;10715;48.546;9.896;2023-02-11T08:09:06;-3.70;99.90
21115;DHT22;10715;48.546;9.896;2023-02-11T08:11:32;-3.60;99.90
21115;DHT22;10715;48.546;9.896;2023-02-11T08:13:57;-3.60;99.90
21115;DHT22;10715;48.546;9.896;2023-02-11T08:16:33;-3.60;99.90
21115;DHT22;10715;48.546;9.896;2023-02-11T08:19:01;-3.50;99.90
21115;DHT22;10715;48.546;9.896;2023-02-11T08:21:28;-3.50;99.90
21115;DHT22;10715;48.546;9.896;2023-02-11T08:23:54;-3.40;99.90
21115;DHT22;10715;48.546;9.896;2023-02-11T08:26:23;-3.40;99.90
21115;DHT22;10715;48.546;9.896;2023-02-11T08:28:51;-3.30;99.90
21115;DHT22;10715;48.546;9.896;2023-02-11T08:31:20;-3.20;99.90
21115;DHT22;10715;48.546;9.896;2023-02-11T08:33:46;-3.10;99.90
21115;DHT22;10715;48.546;9.896;2023-02-11T08:36:17;-3.10;99.90
21115;DHT22;10715;48.546;9.896;2023-02-11T08:38:43;-3.00;99.90
21115;DHT22;10715;48.546;9.896;2023-02-11T08:41:09;-2.90;99.90
21115;DHT22;10715;48.546;9.896;2023-02-11T08:43:36;-2.80;99.90
21115;DHT22;10715;48.546;9.896;2023-02-11T08:46:06;-2.70;99.90
21115;DHT22;10715;48.546;9.896;2023-02-11T08:48:32;-2.60;99.90
21115;DHT22;10715;48.546;9.896;2023-02-11T08:50:57;-2.60;99.90
21115;DHT22;10715;48.546;9.896;2023-02-11T08:53:25;-2.50;99.90
21115;DHT22;10715;48.546;9.896;2023-02-11T08:55:52;-2.40;99.90
21115;DHT22;10715;48.546;9.896;2023-02-11T08:58:19;-2.30;99.90
21115;DHT22;10715;48.546;9.896;2023-02-11T09:00:45;-2.30;99.90
21115;DHT22;10715;48.546;9.896;2023-02-11T09:03:12;-2.20;99.90
21115;DHT22;10715;48.546;9.896;2023-02-11T09:05:45;-2.10;99.90
21115;DHT22;10715;48.546;9.896;2023-02-11T09:08:11;-2.00;99.90
21115;DHT22;10715;48.546;9.896;2023-02-11T09:10:37;-1.90;99.90
21115;DHT22;10715;48.546;9.896;2023-02-11T09:13:04;-1.80;99.90
21115;DHT22;10715;48.546;9.896;2023-02-11T09:15:29;-1.70;99.90
21115;DHT22;10715;48.546;9.896;2023-02-11T09:17:55;-1.60;99.90
21115;DHT22;10715;48.546;9.896;2023-02-11T09:20:22;-1.60;99.90
21115;DHT22;10715;48.546;9.896;2023-02-11T09:22:47;-1.50;99.90
21115;DHT22;10715;48.546;9.896;2023-02-11T09:25:13;-1.40;99.90
21115;DHT22;10715;48.546;9.896;2023-02-11T09:27:39;-1.30;99.90
21115;DHT22;10715;48.546;9.896;2023-02-11T09:30:04;-1.20;99.90
21115;DHT22;10715;48.546;9.896;2023-02-11T09:32:30;-1.00;99.90
21115;DHT22;10715;48.546;9.896;2023-02-11T09:34:56;-0.90;99.90
21115;DHT22;10715;48.546;9.896;2023-02-11T09:37:22;-0.70;99.90
21115;DHT22;10715;48.546;9.896;2023-02-11T09:39:47;-0.50;99.90
21115;DHT22;10715;48.546;9.896;2023-02-11T09:44:57;-0.10;99.90
21115;DHT22;10715;48.546;9.896;2023-02-11T09:47:28;0.10;99.90
21115;DHT22;10715;48.546;9.896;2023-02-11T09:50:09;0.30;99.90
21115;DHT22;10715;48.546;9.896;2023-02-11T09:52:47;0.50;99.90
21115;DHT22;10715;48.546;9.896;2023-02-11T09:55:52;0.60;99.90
21115;DHT22;10715;48.546;9.896;2023-02-11T09:58:28;0.70;99.90
21115;DHT22;10715;48.546;9.896;2023-02-11T10:06:40;1.00;99.90
21115;DHT22;10715;48.546;9.896;2023-02-11T10:17:45;1.40;99.90
21115;DHT22;10715;48.546;9.896;2023-02-11T10:20:28;1.50;99.90
21115;DHT22;10715;48.546;9.896;2023-02-11T10:23:04;1.60;99.90
21115;DHT22;10715;48.546;9.896;2023-02-11T10:25:38;1.70;99.90
21115;DHT22;10715;48.546;9.896;2023-02-11T10:28:19;1.70;99.90
21115;DHT22;10715;48.546;9.896;2023-02-11T10:33:30;1.90;99.90
21115;DHT22;10715;48.546;9.896;2023-02-11T10:35:57;2.00;99.90
21115;DHT22;10715;48.546;9.896;2023-02-11T10:38:24;2.00;99.90
21115;DHT22;10715;48.546;9.896;2023-02-11T10:40:50;2.10;99.90
21115;DHT22;10715;48.546;9.896;2023-02-11T10:43:18;2.20;99.90
21115;DHT22;10715;48.546;9.896;2023-02-11T10:48:43;2.40;99.90
21115;DHT22;10715;48.546;9.896;2023-02-11T10:51:24;2.50;99.90
21115;DHT22;10715;48.546;9.896;2023-02-11T10:56:37;2.70;99.90
21115;DHT22;10715;48.546;9.896;2023-02-11T10:59:13;2.80;99.90
21115;DHT22;10715;48.546;9.896;2023-02-11T11:01:45;2.80;99.90
21115;DHT22;10715;48.546;9.896;2023-02-11T11:04:33;2.90;99.90
21115;DHT22;10715;48.546;9.896;2023-02-11T11:07:25;2.90;99.90
21115;DHT22;10715;48.546;9.896;2023-02-11T11:09:57;3.00;99.90
21115;DHT22;10715;48.546;9.896;2023-02-11T11:15:20;3.10;99.90
21115;DHT22;10715;48.546;9.896;2023-02-11T11:17:51;3.20;99.90
21115;DHT22;10715;48.546;9.896;2023-02-11T11:20:33;3.20;99.90
21115;DHT22;10715;48.546;9.896;2023-02-11T11:23:15;3.30;99.90
21115;DHT22;10715;48.546;9.896;2023-02-11T11:25:44;3.30;99.90
21115;DHT22;10715;48.546;9.896;2023-02-11T11:28:21;3.40;99.90
21115;DHT22;10715;48.546;9.896;2023-02-11T11:30:47;3.50;99.90
21115;DHT22;10715;48.546;9.896;2023-02-11T11:33:39;3.50;99.90
21115;DHT22;10715;48.546;9.896;2023-02-11T11:36:08;3.50;99.90
21115;DHT22;10715;48.546;9.896;2023-02-11T11:38:37;3.60;99.90
21115;DHT22;10715;48.546;9.896;2023-02-11T11:41:15;3.60;99.90
21115;DHT22;10715;48.546;9.896;2023-02-11T11:46:32;3.60;99.90
21115;DHT22;10715;48.546;9.896;2023-02-11T11:49:09;3.70;99.90
21115;DHT22;10715;48.546;9.896;2023-02-11T11:51:40;3.70;99.90
21115;DHT22;10715;48.546;9.896;2023-02-11T11:54:11;3.80;99.90
21115;DHT22;10715;48.546;9.896;2023-02-11T11:56:45;3.80;99.90
21115;DHT22;10715;48.546;9.896;2023-02-11T11:59:13;3.80;99.90
21115;DHT22;10715;48.546;9.896;2023-02-11T12:01:59;3.90;99.90
21115;DHT22;10715;48.546;9.896;2023-02-11T12:18:31;4.00;99.90
21115;DHT22;10715;48.546;9.896;2023-02-11T12:21:16;4.10;99.90
21115;DHT22;10715;48.546;9.896;2023-02-11T12:26:35;4.10;99.90
21115;DHT22;10715;48.546;9.896;2023-02-11T12:29:26;4.10;99.90
21115;DHT22;10715;48.546;9.896;2023-02-11T12:40:32;4.40;99.90
21115;DHT22;10715;48.546;9.896;2023-02-11T12:54:35;4.70;99.90
21115;DHT22;10715;48.546;9.896;2023-02-11T13:02:18;4.80;99.90
21115;DHT22;10715;48.546;9.896;2023-02-11T13:04:51;4.70;99.90
21115;DHT22;10715;48.546;9.896;2023-02-11T13:07:28;4.80;99.90
21115;DHT22;10715;48.546;9.896;2023-02-11T13:10:26;4.80;99.90
21115;DHT22;10715;48.546;9.896;2023-02-11T13:12:52;4.80;99.90
21115;DHT22;10715;48.546;9.896;2023-02-11T13:15:38;4.80;99.90
21115;DHT22;10715;48.546;9.896;2023-02-11T13:32:09;4.80;99.90
21115;DHT22;10715;48.546;9.896;2023-02-11T13:37:36;4.70;99.90
21115;DHT22;10715;48.546;9.896;2023-02-11T13:40:19;4.70;99.90
21115;DHT22;10715;48.546;9.896;2023-02-11T13:42:51;4.70;99.90
21115;DHT22;10715;48.546;9.896;2023-02-11T13:48:51;4.70;99.90
21115;DHT22;10715;48.546;9.896;2023-02-11T13:51:36;4.70;99.90
21115;DHT22;10715;48.546;9.896;2023-02-11T13:54:03;4.70;99.90
21115;DHT22;10715;48.546;9.896;2023-02-11T13:56:40;4.70;99.90
21115;DHT22;10715;48.546;9.896;2023-02-11T14:02:05;4.80;99.90
21115;DHT22;10715;48.546;9.896;2023-02-11T14:10:52;4.90;99.90
21115;DHT22;10715;48.546;9.896;2023-02-11T14:13:23;4.90;99.90
21115;DHT22;10715;48.546;9.896;2023-02-11T14:18:58;4.90;99.90
21115;DHT22;10715;48.546;9.896;2023-02-11T14:29:17;5.10;99.90
21115;DHT22;10715;48.546;9.896;2023-02-11T14:37:15;5.20;99.90
21115;DHT22;10715;48.546;9.896;2023-02-11T14:42:17;5.20;99.90
21115;DHT22;10715;48.546;9.896;2023-02-11T14:44:47;5.20;99.90
21115;DHT22;10715;48.546;9.896;2023-02-11T14:50:54;5.20;99.90
21115;DHT22;10715;48.546;9.896;2023-02-11T14:53:24;5.20;99.90
21115;DHT22;10715;48.546;9.896;2023-02-11T14:55:54;5.10;99.90
21115;DHT22;10715;48.546;9.896;2023-02-11T14:58:30;5.10;99.90
21115;DHT22;10715;48.546;9.896;2023-02-11T15:03:28;5.10;99.90
21115;DHT22;10715;48.546;9.896;2023-02-11T15:08:56;5.10;99.90
21115;DHT22;10715;48.546;9.896;2023-02-11T15:11:27;5.10;99.90
21115;DHT22;10715;48.546;9.896;2023-02-11T15:13:55;5.00;99.90
21115;DHT22;10715;48.546;9.896;2023-02-11T15:16:23;5.00;99.90
21115;DHT22;10715;48.546;9.896;2023-02-11T15:18:53;5.00;99.90
21115;DHT22;10715;48.546;9.896;2023-02-11T15:21:32;5.00;99.90
21115;DHT22;10715;48.546;9.896;2023-02-11T15:24:18;5.00;99.90
21115;DHT22;10715;48.546;9.896;2023-02-11T15:27:15;5.00;99.90
21115;DHT22;10715;48.546;9.896;2023-02-11T15:29:49;5.00;99.90
21115;DHT22;10715;48.546;9.896;2023-02-11T15:32:23;4.90;99.90
21115;DHT22;10715;48.546;9.896;2023-02-11T15:34:51;4.90;99.90
21115;DHT22;10715;48.546;9.896;2023-02-11T15:37:26;4.90;99.90
21115;DHT22;10715;48.546;9.896;2023-02-11T15:39:53;4.90;99.90
21115;DHT22;10715;48.546;9.896;2023-02-11T15:42:20;4.90;99.90
21115;DHT22;10715;48.546;9.896;2023-02-11T15:44:48;4.80;99.90
21115;DHT22;10715;48.546;9.896;2023-02-11T15:47:19;4.80;99.90
21115;DHT22;10715;48.546;9.896;2023-02-11T15:49:47;4.80;99.90
21115;DHT22;10715;48.546;9.896;2023-02-11T15:52:14;4.70;99.90
21115;DHT22;10715;48.546;9.896;2023-02-11T15:54:47;4.70;99.90
21115;DHT22;10715;48.546;9.896;2023-02-11T15:57:14;4.60;99.90
21115;DHT22;10715;48.546;9.896;2023-02-11T15:59:48;4.60;99.90
21115;DHT22;10715;48.546;9.896;2023-02-11T16:04:59;4.50;99.90
21115;DHT22;10715;48.546;9.896;2023-02-11T16:07:48;4.40;99.90
21115;DHT22;10715;48.546;9.896;2023-02-11T16:10:29;4.30;99.90
21115;DHT22;10715;48.546;9.896;2023-02-11T16:18:33;4.10;99.90
21115;DHT22;10715;48.546;9.896;2023-02-11T16:20:58;4.00;99.90
21115;DHT22;10715;48.546;9.896;2023-02-11T16:23:28;3.90;99.90
21115;DHT22;10715;48.546;9.896;2023-02-11T16:26:02;3.90;99.90
21115;DHT22;10715;48.546;9.896;2023-02-11T16:28:31;3.80;99.90
21115;DHT22;10715;48.546;9.896;2023-02-11T16:30:57;3.70;99.90
21115;DHT22;10715;48.546;9.896;2023-02-11T16:33:24;3.60;99.90
21115;DHT22;10715;48.546;9.896;2023-02-11T16:35:49;3.60;99.90
21115;DHT22;10715;48.546;9.896;2023-02-11T16:38:16;3.50;99.90
21115;DHT22;10715;48.546;9.896;2023-02-11T16:40:43;3.50;99.90
21115;DHT22;10715;48.546;9.896;2023-02-11T16:43:11;3.40;99.90
21115;DHT22;10715;48.546;9.896;2023-02-11T16:45:37;3.30;99.90
21115;DHT22;10715;48.546;9.896;2023-02-11T16:48:08;3.30;99.90
21115;DHT22;10715;48.546;9.896;2023-02-11T16:50:36;3.20;99.90
21115;DHT22;10715;48.546;9.896;2023-02-11T16:53:03;3.10;99.90
21115;DHT22;10715;48.546;9.896;2023-02-11T16:55:34;3.10;99.90
21115;DHT22;10715;48.546;9.896;2023-02-11T16:57:59;3.00;99.90
21115;DHT22;10715;48.546;9.896;2023-02-11T17:00:25;2.90;99.90
21115;DHT22;10715;48.546;9.896;2023-02-11T17:02:51;2.90;99.90
21115;DHT22;10715;48.546;9.896;2023-02-11T17:05:20;2.80;99.90
21115;DHT22;10715;48.546;9.896;2023-02-11T17:07:48;2.80;99.90
21115;DHT22;10715;48.546;9.896;2023-02-11T17:10:18;2.70;99.90
21115;DHT22;10715;48.546;9.896;2023-02-11T17:12:44;2.70;99.90
21115;DHT22;10715;48.546;9.896;2023-02-11T17:15:10;2.60;99.90
21115;DHT22;10715;48.546;9.896;2023-02-11T17:17:36;2.60;99.90
21115;DHT22;10715;48.546;9.896;2023-02-11T17:20:02;2.50;99.90
21115;DHT22;10715;48.546;9.896;2023-02-11T17:22:28;2.50;99.90
21115;DHT22;10715;48.546;9.896;2023-02-11T17:24:55;2.50;99.90
21115;DHT22;10715;48.546;9.896;2023-02-11T17:27:22;2.40;99.90
21115;DHT22;10715;48.546;9.896;2023-02-11T17:29:47;2.40;99.90
21115;DHT22;10715;48.546;9.896;2023-02-11T17:32:13;2.40;99.90
21115;DHT22;10715;48.546;9.896;2023-02-11T17:34:39;2.40;99.90
21115;DHT22;10715;48.546;9.896;2023-02-11T17:37:04;2.40;99.90
21115;DHT22;10715;48.546;9.896;2023-02-11T17:39:38;2.30;99.90
21115;DHT22;10715;48.546;9.896;2023-02-11T17:42:05;2.30;99.90
21115;DHT22;10715;48.546;9.896;2023-02-11T17:44:31;2.30;99.90
21115;DHT22;10715;48.546;9.896;2023-02-11T17:46:57;2.30;99.90
21115;DHT22;10715;48.546;9.896;2023-02-11T17:49:23;2.20;99.90
21115;DHT22;10715;48.546;9.896;2023-02-11T17:51:49;2.30;99.90
21115;DHT22;10715;48.546;9.896;2023-02-11T17:54:16;2.30;99.90
21115;DHT22;10715;48.546;9.896;2023-02-11T17:56:43;2.20;99.90
21115;DHT22;10715;48.546;9.896;2023-02-11T17:59:10;2.20;99.90
21115;DHT22;10715;48.546;9.896;2023-02-11T18:01:39;2.20;99.90
21115;DHT22;10715;48.546;9.896;2023-02-11T18:04:05;2.20;99.90
21115;DHT22;10715;48.546;9.896;2023-02-11T18:06:31;2.20;99.90
21115;DHT22;10715;48.546;9.896;2023-02-11T18:08:58;2.20;99.90
21115;DHT22;10715;48.546;9.896;2023-02-11T18:11:27;2.10;99.90
21115;DHT22;10715;48.546;9.896;2023-02-11T18:13:55;2.10;99.90
21115;DHT22;10715;48.546;9.896;2023-02-11T18:16:22;2.10;99.90
21115;DHT22;10715;48.546;9.896;2023-02-11T18:18:48;2.10;99.90
21115;DHT22;10715;48.546;9.896;2023-02-11T18:21:16;2.10;99.90
21115;DHT22;10715;48.546;9.896;2023-02-11T18:23:42;2.10;99.90
21115;DHT22;10715;48.546;9.896;2023-02-11T18:26:15;2.10;99.90
21115;DHT22;10715;48.546;9.896;2023-02-11T18:28:41;2.10;99.90
21115;DHT22;10715;48.546;9.896;2023-02-11T18:31:08;2.10;99.90
21115;DHT22;10715;48.546;9.896;2023-02-11T18:33:35;2.00;99.90
21115;DHT22;10715;48.546;9.896;2023-02-11T18:36:05;2.00;99.90
21115;DHT22;10715;48.546;9.896;2023-02-11T18:38:31;2.00;99.90
21115;DHT22;10715;48.546;9.896;2023-02-11T18:40:57;2.00;99.90
21115;DHT22;10715;48.546;9.896;2023-02-11T18:43:22;2.00;99.90